Samut Prakan, Thailand
Current Conditions -  °F | °C
As of 3:30 AM on Wednesday 26 Nov 2014 (Local Time) from VTBS Reporting Station
Scattered Clouds Scattered Clouds  
Wind Chill: 82°   Ceiling: Unl
Heat Index: 86°   Visibility: 6mi
Dew Point: 70°   Wind: 5mph
Humidity: 66%   Direction: 320°NW
Pressure: 29.77"   Gusts: NA
Location:  13.61°N, 100.61°E
Report Text: VTBS 252030Z 32004KT 9999 FEW025 SCT300 28/21 Q1008 NOSIG
Loading
Personal Weather Stations






























Interactive Weather Map New forecast layout! Learn more

10-Day Weather Forecast

Advertisements
Track Severe Weather on mobile